Still River @ Robertsville, Ct

Still River at Robertsville, CT
 Total Drainage Area: 85 sq. miles 
 Drainage Area Controlled by Corps Dams: 0 sq. miles (0%) 
 Warning Flow/Stage: ?? cfs / ?? feet 
 Flood Flow/Stage: ?? cfs / ?? feet 
Date Time
(Eastern)
Stage
(ft)
Flow
(cfs)
CSM
(cfs / sq. mi.)
Jan-31 01:30 pm 3.02 297 3.5
Jan-31 12:30 pm 3.02 297 3.5
Jan-31 11:30 am 3.03 300 3.5
Jan-31 10:30 am 3.04 302 3.6
Jan-31 09:30 am 3.04 302 3.6
Jan-31 08:30 am 3.06 308 3.6
Jan-31 07:30 am 3.04 302 3.6
Jan-31 06:30 am 3.06 308 3.6
Jan-31 05:30 am 3.06 308 3.6
Jan-31 04:30 am 3.06 308 3.6
Jan-31 03:30 am 3.07 311 3.7
Jan-31 02:30 am 3.06 308 3.6
Jan-31 01:30 am 3.06 308 3.6
Jan-31 12:30 am 3.07 311 3.7
Jan-30 11:30 pm 3.06 308 3.6
Jan-30 10:30 pm 3.07 311 3.7
Jan-30 09:30 pm 3.07 311 3.7
Jan-30 08:30 pm 3.07 311 3.7
Jan-30 07:30 pm 3.07 311 3.7
Jan-30 06:30 pm 3.08 314 3.7
Jan-30 05:30 pm 3.11 323 3.8
Jan-30 04:30 pm 3.11 323 3.8
Jan-30 03:30 pm 3.10 320 3.8
Jan-30 02:30 pm 3.11 323 3.8
Jan-30 01:30 pm 3.11 323 3.8
Report Generated January 31, 2023 02:19 pm